Time;durP1;ratioP1;P1;durP2;ratioP2;P2;SDS_P1;SDS_P2;PMS_P1;PMS_P2;Temp;Humidity;BMP_temperature;BMP_pressure;BME280_temperature;BME280_humidity;BME280_pressure;Samples;Min_cycle;Max_cycle;Signal;HPM_P1;HPM_P2
2022/08/28 00:02:20;;;;;;;39.60;28.70;;;17.90;99.90;;;;;;4930440;29;20239;-73
2022/08/28 00:04:45;;;;;;;33.97;28.27;;;18.00;99.90;;;;;;4933833;29;20181;-71
2022/08/28 00:07:11;;;;;;;40.93;29.13;;;18.00;99.90;;;;;;4933974;29;20273;-71
2022/08/28 00:09:37;;;;;;;38.93;29.17;;;18.00;99.90;;;;;;4933840;29;20654;-79
2022/08/28 00:12:04;;;;;;;40.60;28.10;;;18.00;99.90;;;;;;4933711;29;20211;-71
2022/08/28 00:14:30;;;;;;;40.57;29.23;;;18.00;99.90;;;;;;4933543;29;20185;-71
2022/08/28 00:16:55;;;;;;;36.37;26.97;;;18.00;99.90;;;;;;4933926;29;20434;-71
2022/08/28 00:19:22;;;;;;;37.60;28.57;;;18.00;99.90;;;;;;4933505;29;20508;-70
2022/08/28 00:21:48;;;;;;;36.83;28.57;;;18.00;99.90;;;;;;4933200;29;20232;-72
2022/08/28 00:24:14;;;;;;;34.17;29.00;;;18.00;99.90;;;;;;4933230;29;20425;-71
2022/08/28 00:29:24;;;;;;;37.70;30.07;;;18.00;99.90;;;;;;4933343;29;20232;-70
2022/08/28 00:31:50;;;;;;;38.23;30.00;;;18.00;99.90;;;;;;4933630;29;20934;-71
2022/08/28 00:34:16;;;;;;;34.83;29.13;;;18.00;99.90;;;;;;4933621;29;20232;-71
2022/08/28 00:36:41;;;;;;;40.40;28.80;;;18.00;99.90;;;;;;4933830;29;20244;-71
2022/08/28 00:39:08;;;;;;;40.07;29.30;;;18.00;99.90;;;;;;4933328;29;20317;-72
2022/08/28 00:41:35;;;;;;;35.40;28.00;;;18.10;99.90;;;;;;4933604;29;20672;-70
2022/08/28 00:44:09;;;;;;;36.27;27.87;;;18.10;99.90;;;;;;4933315;29;20547;-70
2022/08/28 00:46:36;;;;;;;31.73;26.50;;;18.00;99.90;;;;;;4933606;29;20428;-70
2022/08/28 00:49:02;;;;;;;37.43;29.17;;;18.20;99.90;;;;;;4933461;29;20437;-71
2022/08/28 00:54:12;;;;;;;38.10;28.53;;;18.10;99.90;;;;;;4934858;29;20736;-71
2022/08/28 00:56:39;;;;;;;37.67;27.93;;;18.20;99.90;;;;;;4936996;29;20500;-71
2022/08/28 00:59:09;;;;;;;37.80;27.60;;;18.10;99.90;;;;;;4936553;29;20193;-71
2022/08/28 02:32:11;;;;;;;33.13;25.80;;;17.90;99.90;;;;;;5338626;23;20531;-68
2022/08/28 02:34:38;;;;;;;32.63;25.03;;;17.90;99.90;;;;;;4951656;29;20525;-67
2022/08/28 02:37:06;;;;;;;31.40;24.17;;;17.90;99.90;;;;;;4954091;28;20177;-68
2022/08/28 02:39:32;;;;;;;33.37;23.60;;;17.90;99.90;;;;;;4954234;28;20420;-70
2022/08/28 02:41:57;;;;;;;36.73;25.70;;;18.00;99.90;;;;;;4954029;29;20479;-70
2022/08/28 02:44:23;;;;;;;35.33;26.23;;;18.00;99.90;;;;;;4953089;29;20177;-69
2022/08/28 02:46:48;;;;;;;39.17;27.33;;;18.00;99.90;;;;;;4952240;29;20679;-70
2022/08/28 02:49:14;;;;;;;33.10;25.10;;;18.00;99.90;;;;;;4954363;29;20205;-70
2022/08/28 02:51:39;;;;;;;33.73;24.23;;;18.00;99.90;;;;;;4954155;29;20271;-70
2022/08/28 02:54:05;;;;;;;34.07;26.20;;;18.00;99.90;;;;;;4954315;29;20287;-71
2022/08/28 02:56:30;;;;;;;31.57;25.40;;;18.10;99.90;;;;;;4954219;29;20676;-70
2022/08/28 02:58:57;;;;;;;28.70;24.03;;;18.10;99.90;;;;;;4954416;28;20180;-70
2022/08/28 03:01:22;;;;;;;33.80;25.33;;;18.10;99.90;;;;;;4953965;28;20207;-70
2022/08/28 03:03:48;;;;;;;35.83;25.23;;;18.10;99.90;;;;;;4953928;29;20992;-70
2022/08/28 03:06:13;;;;;;;35.53;23.17;;;18.10;99.90;;;;;;4953987;29;20603;-72
2022/08/28 03:08:42;;;;;;;29.20;23.60;;;18.10;99.90;;;;;;4954001;29;20232;-70
2022/08/28 03:11:08;;;;;;;34.70;25.10;;;18.10;99.90;;;;;;4953851;28;20206;-69
2022/08/28 03:13:34;;;;;;;35.13;25.17;;;18.10;99.90;;;;;;4953644;28;20515;-72
2022/08/28 03:15:59;;;;;;;40.53;24.50;;;18.10;99.90;;;;;;4954171;29;21012;-70
2022/08/28 03:18:28;;;;;;;40.00;26.37;;;18.10;99.90;;;;;;4953282;28;20191;-70
2022/08/28 03:20:54;;;;;;;37.47;24.33;;;18.10;99.90;;;;;;4954060;28;20185;-70
2022/08/28 03:23:26;;;;;;;33.77;25.00;;;18.10;99.90;;;;;;4953361;28;20836;-70
2022/08/28 03:26:01;;;;;;;31.77;25.07;;;18.20;99.90;;;;;;4954230;28;20264;-70
2022/08/28 03:28:30;;;;;;;36.50;26.07;;;18.20;99.90;;;;;;4950221;29;20851;-70
2022/08/28 03:30:56;;;;;;;36.13;26.70;;;18.20;99.90;;;;;;4953674;28;20436;-70
2022/08/28 03:33:22;;;;;;;45.93;27.67;;;18.20;99.90;;;;;;4953107;28;20436;-70
2022/08/28 03:35:48;;;;;;;36.70;27.00;;;18.30;99.90;;;;;;4953788;28;20823;-70
2022/08/28 03:38:15;;;;;;;39.90;26.73;;;18.30;99.90;;;;;;4953313;28;20472;-70
2022/08/28 03:40:43;;;;;;;37.80;28.13;;;18.20;99.90;;;;;;4953776;28;20737;-70
2022/08/28 03:43:15;;;;;;;38.27;26.53;;;18.20;99.90;;;;;;4952974;28;20542;-70
2022/08/28 03:45:49;;;;;;;36.03;26.57;;;18.20;99.90;;;;;;4953709;28;20501;-70
2022/08/28 03:48:15;;;;;;;40.23;27.70;;;18.30;99.90;;;;;;4953191;28;20450;-70
2022/08/28 03:50:40;;;;;;;37.07;28.30;;;18.30;99.90;;;;;;4953445;29;20428;-71
2022/08/28 03:53:06;;;;;;;33.13;25.77;;;18.30;99.90;;;;;;4953137;29;20184;-70
2022/08/28 03:55:31;;;;;;;37.93;26.00;;;18.20;99.90;;;;;;4953366;29;20212;-70
2022/08/28 03:57:57;;;;;;;36.00;24.90;;;18.30;99.90;;;;;;4953553;29;20227;-70
2022/08/28 04:00:24;;;;;;;35.27;25.77;;;18.30;99.90;;;;;;4953313;29;20185;-69
2022/08/28 04:02:50;;;;;;;42.33;29.60;;;18.30;99.90;;;;;;4954832;28;20596;-70
2022/08/28 04:05:16;;;;;;;45.20;29.13;;;18.20;99.90;;;;;;4954112;28;20425;-70
2022/08/28 04:07:42;;;;;;;43.97;27.00;;;18.20;99.90;;;;;;4953744;28;20235;-72
2022/08/28 04:10:07;;;;;;;44.30;28.40;;;18.20;99.90;;;;;;4953803;29;20432;-70
2022/08/28 04:12:34;;;;;;;44.00;28.20;;;18.20;99.90;;;;;;4953906;29;20208;-70
2022/08/28 04:15:00;;;;;;;39.97;28.13;;;18.20;99.90;;;;;;4953747;28;20428;-72
2022/08/28 04:17:25;;;;;;;48.23;28.47;;;18.20;99.90;;;;;;4953166;29;20439;-70
2022/08/28 04:19:52;;;;;;;34.40;25.93;;;18.20;99.90;;;;;;4953045;29;20185;-70
2022/08/28 04:22:18;;;;;;;38.27;27.30;;;18.30;99.90;;;;;;4952791;28;20215;-70
2022/08/28 04:24:43;;;;;;;38.27;27.47;;;18.20;99.90;;;;;;4952982;29;20523;-70
2022/08/28 04:27:09;;;;;;;41.40;29.20;;;18.30;99.90;;;;;;4953113;29;20189;-70
2022/08/28 04:29:34;;;;;;;40.07;28.03;;;18.30;99.90;;;;;;4954906;28;20208;-70
2022/08/28 04:32:01;;;;;;;39.90;27.90;;;18.30;99.90;;;;;;4956610;29;20728;-70
2022/08/28 04:34:27;;;;;;;39.10;26.80;;;18.30;99.90;;;;;;4956611;29;20215;-69
2022/08/28 04:36:53;;;;;;;36.23;26.13;;;18.40;99.90;;;;;;4956809;28;20427;-69
2022/08/28 04:39:19;;;;;;;36.57;26.50;;;18.30;99.90;;;;;;4956746;28;20276;-70
2022/08/28 04:41:44;;;;;;;39.60;26.20;;;18.30;99.90;;;;;;4947330;29;20534;-70
2022/08/28 04:44:10;;;;;;;34.30;24.60;;;18.40;99.90;;;;;;4956617;28;20194;-70
2022/08/28 04:46:36;;;;;;;38.83;24.20;;;18.30;99.90;;;;;;4956461;29;20725;-70
2022/08/28 04:49:03;;;;;;;38.67;26.90;;;18.30;99.90;;;;;;4956619;28;20204;-69
2022/08/28 04:51:29;;;;;;;41.80;26.77;;;18.30;99.90;;;;;;4956287;28;20673;-71
2022/08/28 04:53:55;;;;;;;40.20;28.70;;;18.30;99.90;;;;;;4956499;28;20435;-71
2022/08/28 04:56:21;;;;;;;42.03;27.20;;;18.30;99.90;;;;;;4956217;28;20417;-71
2022/08/28 04:58:46;;;;;;;39.30;26.87;;;18.30;99.90;;;;;;4956508;29;20428;-70
2022/08/28 05:01:17;;;;;;;44.17;28.07;;;18.30;99.90;;;;;;4956355;29;20197;-71
2022/08/28 05:03:44;;;;;;;42.20;27.80;;;18.30;99.90;;;;;;4950657;29;20243;-70
2022/08/28 05:06:13;;;;;;;44.80;29.30;;;18.40;99.90;;;;;;4947318;29;20483;-70
2022/08/28 05:08:38;;;;;;;42.13;29.30;;;18.40;99.90;;;;;;4950042;29;20451;-70
2022/08/28 05:11:18;;;;;;;44.33;27.43;;;18.40;99.90;;;;;;4956238;29;20440;-71
2022/08/28 05:13:43;;;;;;;36.57;27.03;;;18.40;99.90;;;;;;4951031;29;20764;-69
2022/08/28 05:16:09;;;;;;;39.03;27.00;;;18.40;99.90;;;;;;4956246;28;20420;-70
2022/08/28 05:18:35;;;;;;;35.47;25.20;;;18.40;99.90;;;;;;4955784;29;20373;-70
2022/08/28 05:21:01;;;;;;;38.87;27.90;;;18.40;99.90;;;;;;4956074;28;20208;-70
2022/08/28 05:23:27;;;;;;;36.73;27.97;;;18.40;99.90;;;;;;4955486;29;20209;-69
2022/08/28 05:25:53;;;;;;;42.93;27.00;;;18.40;99.90;;;;;;4956217;28;20184;-70
2022/08/28 05:28:19;;;;;;;35.70;26.20;;;18.50;99.90;;;;;;4955703;28;20936;-71
2022/08/28 05:30:46;;;;;;;38.13;27.40;;;18.50;99.90;;;;;;4955861;28;20184;-71
2022/08/28 05:33:13;;;;;;;38.10;27.30;;;18.50;99.90;;;;;;4955372;29;20428;-71
2022/08/28 05:35:42;;;;;;;37.50;26.50;;;18.50;99.90;;;;;;4955859;28;20483;-70
2022/08/28 05:38:08;;;;;;;37.77;26.03;;;18.50;99.90;;;;;;4955717;28;20428;-70
2022/08/28 05:40:43;;;;;;;36.17;25.93;;;18.50;99.90;;;;;;4954971;28;20448;-72
2022/08/28 05:43:10;;;;;;;35.30;25.23;;;18.60;99.90;;;;;;4955027;28;20466;-71
2022/08/28 05:45:36;;;;;;;33.63;26.00;;;18.60;99.90;;;;;;4953117;28;21032;-72
2022/08/28 05:48:02;;;;;;;37.00;25.27;;;18.60;99.90;;;;;;4955548;29;20428;-71
2022/08/28 05:50:28;;;;;;;31.80;24.07;;;18.60;99.90;;;;;;4955552;29;20183;-71
2022/08/28 05:52:53;;;;;;;31.07;24.17;;;18.60;99.90;;;;;;4947941;29;20460;-71
2022/08/28 05:55:18;;;;;;;35.00;24.77;;;18.70;99.90;;;;;;4955145;29;20195;-72
2022/08/28 05:57:44;;;;;;;35.87;25.33;;;18.70;99.90;;;;;;4955687;29;20196;-70
2022/08/28 06:00:12;;;;;;;31.03;22.77;;;18.80;99.90;;;;;;4953506;29;20744;-70
2022/08/28 06:02:37;;;;;;;32.70;23.13;;;18.80;99.90;;;;;;4951794;29;20235;-71
2022/08/28 06:05:03;;;;;;;32.80;23.37;;;18.80;99.90;;;;;;4954984;29;20890;-70
2022/08/28 06:07:29;;;;;;;29.73;22.80;;;18.80;99.90;;;;;;4954562;29;20211;-70
2022/08/28 06:09:54;;;;;;;29.10;22.73;;;18.80;99.90;;;;;;4954304;29;20180;-70
2022/08/28 06:12:20;;;;;;;30.30;22.83;;;18.80;99.90;;;;;;4954682;29;20712;-72
2022/08/28 06:14:46;;;;;;;31.00;22.00;;;18.80;99.90;;;;;;4955146;29;20176;-71
2022/08/28 06:17:11;;;;;;;27.67;22.00;;;18.80;99.90;;;;;;4955070;29;20549;-70
2022/08/28 06:19:37;;;;;;;35.50;20.77;;;18.90;99.90;;;;;;4954928;29;20681;-70
2022/08/28 06:22:04;;;;;;;30.70;20.87;;;19.00;99.90;;;;;;4954859;29;20208;-72
2022/08/28 06:24:30;;;;;;;29.50;21.80;;;19.00;99.90;;;;;;4954584;28;20184;-71
2022/08/28 06:26:58;;;;;;;25.73;20.87;;;19.00;99.90;;;;;;4955009;28;20785;-70
2022/08/28 06:29:23;;;;;;;33.67;21.73;;;19.00;99.90;;;;;;4954694;28;20991;-70
2022/08/28 06:31:54;;;;;;;27.80;22.60;;;19.10;99.90;;;;;;4954647;29;20459;-72
2022/08/28 06:34:20;;;;;;;30.90;21.40;;;19.10;99.90;;;;;;4954545;28;20185;-71
2022/08/28 06:36:45;;;;;;;27.57;21.60;;;19.20;99.90;;;;;;4954620;29;20867;-72
2022/08/28 06:39:12;;;;;;;30.40;21.90;;;19.20;99.90;;;;;;4954721;29;20572;-71
2022/08/28 06:41:41;;;;;;;24.50;17.97;;;19.20;99.90;;;;;;4954306;28;20228;-71
2022/08/28 06:44:09;;;;;;;21.20;18.30;;;19.30;99.90;;;;;;4954299;28;20464;-71
2022/08/28 06:46:35;;;;;;;22.43;17.70;;;19.30;99.90;;;;;;4954457;28;20525;-70
2022/08/28 06:49:02;;;;;;;21.83;17.27;;;19.40;99.90;;;;;;4954294;29;20864;-70
2022/08/28 06:51:28;;;;;;;25.23;19.50;;;19.50;99.90;;;;;;4951474;28;20211;-70
2022/08/28 06:53:53;;;;;;;23.73;19.10;;;19.60;99.90;;;;;;4950606;28;20808;-69
2022/08/28 06:56:20;;;;;;;23.87;18.70;;;19.60;99.90;;;;;;4952829;29;20200;-70
2022/08/28 06:58:48;;;;;;;21.70;17.40;;;19.60;99.90;;;;;;4953694;28;20617;-70
2022/08/28 07:01:24;;;;;;;22.13;16.97;;;19.60;99.90;;;;;;4953043;28;20488;-71
2022/08/28 07:03:51;;;;;;;24.37;17.63;;;19.60;99.90;;;;;;4952240;28;20904;-71
2022/08/28 07:06:18;;;;;;;24.73;17.57;;;19.70;99.90;;;;;;4953026;28;20421;-70
2022/08/28 07:08:44;;;;;;;22.77;17.00;;;19.80;99.90;;;;;;4951454;29;20435;-70
2022/08/28 07:11:17;;;;;;;23.23;16.50;;;19.80;99.90;;;;;;4952589;28;20444;-70
2022/08/28 07:13:44;;;;;;;21.03;16.20;;;19.80;99.90;;;;;;4950357;29;20432;-70
2022/08/28 07:16:11;;;;;;;31.33;17.60;;;19.90;99.90;;;;;;4953539;28;20459;-70
2022/08/28 07:18:37;;;;;;;21.40;17.80;;;19.90;99.90;;;;;;4953235;28;20470;-70
2022/08/28 07:21:03;;;;;;;18.17;15.83;;;19.90;99.90;;;;;;4953562;28;20495;-71
2022/08/28 07:23:30;;;;;;;23.63;16.37;;;19.90;99.90;;;;;;4953136;29;20223;-72
2022/08/28 07:25:57;;;;;;;21.73;17.60;;;19.90;99.90;;;;;;4958127;28;20185;-71
2022/08/28 07:28:23;;;;;;;22.87;14.70;;;19.90;99.90;;;;;;4953509;28;20455;-70
2022/08/28 07:31:00;;;;;;;22.13;18.77;;;19.90;99.90;;;;;;4952714;28;20428;-70
2022/08/28 07:33:27;;;;;;;25.50;18.70;;;20.00;99.90;;;;;;4951916;29;20514;-71
2022/08/28 07:35:53;;;;;;;25.20;17.60;;;20.00;99.90;;;;;;4953648;28;20458;-70
2022/08/28 07:38:20;;;;;;;23.10;17.20;;;20.00;99.90;;;;;;4953426;28;20436;-69
2022/08/28 07:40:45;;;;;;;19.73;17.53;;;20.00;99.90;;;;;;4952809;28;20443;-70
2022/08/28 07:46:08;;;;;;;21.23;16.87;;;20.20;99.90;;;;;;4953679;29;20439;-70
2022/08/28 07:48:34;;;;;;;17.23;15.43;;;20.10;99.90;;;;;;4953261;29;20431;-70
2022/08/28 07:51:02;;;;;;;22.33;15.77;;;20.10;99.90;;;;;;4952063;28;20826;-71
2022/08/28 07:53:27;;;;;;;20.73;16.10;;;20.10;99.90;;;;;;4952959;29;20783;-70
2022/08/28 07:55:53;;;;;;;21.50;18.10;;;20.10;99.90;;;;;;4953385;29;20515;-70
2022/08/28 07:58:19;;;;;;;21.20;17.00;;;20.10;99.90;;;;;;4953189;29;20287;-70
2022/08/28 08:00:45;;;;;;;20.03;16.17;;;20.10;99.90;;;;;;4952377;29;20201;-70
2022/08/28 08:03:12;;;;;;;19.10;16.67;;;20.10;99.90;;;;;;4952885;28;20468;-70
2022/08/28 08:05:38;;;;;;;20.53;16.17;;;20.20;99.90;;;;;;4953264;29;20260;-69
2022/08/28 08:08:04;;;;;;;22.47;17.17;;;20.20;99.90;;;;;;4953067;28;20524;-72
2022/08/28 08:10:29;;;;;;;20.27;15.53;;;20.30;99.90;;;;;;4953157;29;20195;-70
2022/08/28 08:12:55;;;;;;;20.83;17.00;;;20.40;99.90;;;;;;4952841;29;20649;-70
2022/08/28 08:15:20;;;;;;;21.10;15.43;;;20.60;99.90;;;;;;4953133;29;20180;-70
2022/08/28 08:17:46;;;;;;;17.40;14.47;;;20.60;99.90;;;;;;4953118;29;20191;-71
2022/08/28 08:20:12;;;;;;;21.53;16.20;;;20.70;99.90;;;;;;4953129;29;20634;-71
2022/08/28 08:22:37;;;;;;;19.83;15.07;;;20.60;99.90;;;;;;4952671;29;20212;-70
2022/08/28 08:25:04;;;;;;;17.60;13.67;;;20.70;99.90;;;;;;4952999;29;20192;-72
2022/08/28 08:27:31;;;;;;;17.93;14.30;;;20.70;99.90;;;;;;4952587;28;20173;-70
2022/08/28 08:29:56;;;;;;;20.03;14.63;;;20.60;99.90;;;;;;4952858;28;20417;-70
2022/08/28 08:32:22;;;;;;;14.97;13.17;;;20.50;99.90;;;;;;4952592;29;20451;-70
2022/08/28 08:34:52;;;;;;;15.20;13.20;;;20.60;99.90;;;;;;4952768;29;20188;-71
2022/08/28 08:37:17;;;;;;;15.43;13.80;;;20.70;99.90;;;;;;4953015;28;20475;-72
2022/08/28 08:39:43;;;;;;;18.20;13.47;;;20.70;99.90;;;;;;4952595;29;20420;-70
2022/08/28 08:42:30;;;;;;;15.90;13.90;;;20.90;99.90;;;;;;4952815;29;20837;-70
2022/08/28 08:44:58;;;;;;;22.07;13.77;;;21.00;99.90;;;;;;4952657;28;20184;-70
2022/08/28 08:47:39;;;;;;;13.70;12.27;;;21.20;99.90;;;;;;4952930;28;20421;-70
2022/08/28 08:50:09;;;;;;;14.67;12.27;;;21.30;99.90;;;;;;4949777;29;20428;-72
2022/08/28 08:53:12;;;;;;;19.37;12.40;;;21.50;99.90;;;;;;4952335;29;20471;-71
2022/08/28 08:55:43;;;;;;;19.43;12.90;;;21.60;99.90;;;;;;4952620;29;20448;-71
2022/08/28 08:58:22;;;;;;;13.07;11.87;;;21.70;99.90;;;;;;4952788;28;20483;-72
2022/08/28 09:01:01;;;;;;;14.37;12.47;;;21.80;99.90;;;;;;4952696;28;20511;-71
2022/08/28 09:03:43;;;;;;;12.83;11.53;;;21.90;99.90;;;;;;4945151;28;20475;-71
2022/08/28 09:06:18;;;;;;;18.90;12.20;;;22.20;99.90;;;;;;4952202;28;20436;-71
2022/08/28 09:08:54;;;;;;;13.07;11.73;;;22.50;99.90;;;;;;4952101;28;20431;-69
2022/08/28 09:11:43;;;;;;;11.60;10.70;;;22.80;99.90;;;;;;4944937;28;20491;-72
2022/08/28 09:14:19;;;;;;;13.40;11.57;;;23.10;99.90;;;;;;4950997;28;20435;-71
2022/08/28 09:16:46;;;;;;;18.63;12.30;;;23.40;99.90;;;;;;4954795;28;20787;-72
2022/08/28 09:19:18;;;;;;;12.80;11.40;;;23.60;99.90;;;;;;4955659;28;20503;-71
2022/08/28 09:21:44;;;;;;;13.47;10.43;;;23.60;99.90;;;;;;4955334;29;20448;-72
2022/08/28 09:24:25;;;;;;;14.20;11.83;;;23.50;99.90;;;;;;4955272;28;20945;-71
2022/08/28 09:26:54;;;;;;;16.27;9.07;;;23.40;99.90;;;;;;4955851;29;20421;-73
2022/08/28 09:29:25;;;;;;;12.13;10.83;;;23.40;99.90;;;;;;4955043;29;20420;-71
2022/08/28 09:31:51;;;;;;;13.40;9.60;;;23.60;99.90;;;;;;4956129;28;20834;-71
2022/08/28 09:34:22;;;;;;;11.27;10.17;;;23.90;99.90;;;;;;4955461;29;20420;-71
2022/08/28 09:36:48;;;;;;;10.80;9.87;;;24.10;99.90;;;;;;4952021;28;20188;-73
2022/08/28 09:39:31;;;;;;;12.43;9.83;;;24.10;99.90;;;;;;4954058;29;20440;-72
2022/08/28 09:45:15;;;;;;;10.50;9.50;;;24.30;99.90;;;;;;4953257;29;20427;-72
2022/08/28 09:47:48;;;;;;;12.20;8.50;;;24.90;99.90;;;;;;4946581;29;20427;-73
2022/08/28 09:50:14;;;;;;;12.30;10.10;;;25.10;99.90;;;;;;4955406;28;20420;-71
2022/08/28 09:52:39;;;;;;;11.13;10.00;;;25.30;99.90;;;;;;4952198;29;20603;-69
2022/08/28 09:55:08;;;;;;;11.00;8.30;;;25.30;99.90;;;;;;4955408;28;20180;-71
2022/08/28 09:57:33;;;;;;;12.10;10.80;;;25.30;99.90;;;;;;4955037;28;20774;-70
2022/08/28 09:59:59;;;;;;;11.30;8.87;;;25.00;99.90;;;;;;4955242;29;20428;-73
2022/08/28 10:02:39;;;;;;;9.83;8.83;;;24.90;99.90;;;;;;4954310;28;20221;-72
2022/08/28 10:05:17;;;;;;;32.13;11.27;;;24.60;99.90;;;;;;4955239;29;20642;-71
2022/08/28 10:07:55;;;;;;;17.77;10.73;;;24.30;99.90;;;;;;4949839;29;20439;-71
2022/08/28 10:10:27;;;;;;;20.03;10.03;;;24.20;99.90;;;;;;4954954;28;21040;-71
2022/08/28 10:13:08;;;;;;;13.07;9.70;;;24.10;99.90;;;;;;4953959;28;20440;-72
2022/08/28 10:15:56;;;;;;;11.17;10.13;;;24.10;99.90;;;;;;4954181;29;20939;-73
2022/08/28 10:18:47;;;;;;;12.37;10.20;;;24.50;99.90;;;;;;4954622;28;20459;-71
2022/08/28 10:21:48;;;;;;;10.50;9.50;;;25.40;99.90;;;;;;4953255;29;20461;-73
2022/08/28 10:24:56;;;;;;;16.27;10.60;;;25.90;99.90;;;;;;4953037;29;20417;-74
2022/08/28 10:27:57;;;;;;;15.63;10.00;;;25.50;99.90;;;;;;4953727;28;20416;-71
2022/08/28 10:30:23;;;;;;;10.03;8.87;;;25.00;99.90;;;;;;4954216;29;20436;-70
2022/08/28 10:33:01;;;;;;;14.17;8.67;;;24.80;99.90;;;;;;4954360;29;20455;-70
2022/08/28 10:35:52;;;;;;;12.53;11.23;;;24.70;99.90;;;;;;4951585;29;20523;-72
2022/08/28 10:38:36;;;;;;;11.70;10.50;;;24.50;99.90;;;;;;4954882;29;20437;-73
2022/08/28 10:41:19;;;;;;;12.63;9.67;;;24.80;99.90;;;;;;4951798;29;20505;-72
2022/08/28 10:43:51;;;;;;;13.70;9.50;;;25.50;99.90;;;;;;4954368;28;20499;-71
2022/08/28 10:46:23;;;;;;;10.80;9.33;;;25.60;99.90;;;;;;4946088;28;20468;-71
2022/08/28 10:48:51;;;;;;;10.30;9.00;;;25.70;99.90;;;;;;4953342;28;20985;-72
2022/08/28 10:51:29;;;;;;;12.80;8.27;;;25.40;99.90;;;;;;4952643;28;20460;-72
2022/08/28 10:54:00;;;;;;;15.17;8.93;;;25.20;99.90;;;;;;4952039;29;20464;-72
2022/08/28 10:56:35;;;;;;;8.93;8.10;;;24.90;99.90;;;;;;4951268;28;20460;-70
2022/08/28 10:59:01;;;;;;;10.83;9.40;;;24.90;99.90;;;;;;4952266;28;20521;-70
2022/08/28 11:01:31;;;;;;;12.80;10.00;;;24.90;99.90;;;;;;4962238;28;20864;-68
2022/08/28 11:04:00;;;;;;;9.80;8.17;;;25.20;99.90;;;;;;4951517;28;20709;-70
2022/08/28 11:06:29;;;;;;;9.23;8.33;;;25.60;99.90;;;;;;4950407;28;21137;-71
2022/08/28 11:09:23;;;;;;;9.37;8.47;;;26.40;99.90;;;;;;4952839;29;20440;-70
2022/08/28 11:11:48;;;;;;;9.70;7.77;;;27.10;99.90;;;;;;4949231;28;20603;-70
2022/08/28 11:14:36;;;;;;;8.80;6.80;;;27.40;99.90;;;;;;4951372;29;20448;-70
2022/08/28 11:17:21;;;;;;;11.50;7.27;;;27.40;99.90;;;;;;4952504;28;20463;-70
2022/08/28 11:20:14;;;;;;;7.50;6.77;;;27.70;99.90;;;;;;4950831;29;20798;-70
2022/08/28 11:22:48;;;;;;;9.00;8.20;;;27.60;99.90;;;;;;4952023;28;20468;-69
2022/08/28 11:25:20;;;;;;;8.93;7.47;;;27.40;99.90;;;;;;4942683;28;20818;-70
2022/08/28 11:28:16;;;;;;;11.13;7.07;;;27.50;99.90;;;;;;4944160;29;20496;-71
2022/08/28 11:30:47;;;;;;;7.40;6.90;;;27.90;99.90;;;;;;4961396;28;20490;-71
2022/08/28 11:33:34;;;;;;;8.33;7.53;;;28.30;99.90;;;;;;4959195;28;20423;-70
2022/08/28 11:36:00;;;;;;;8.30;7.60;;;27.80;99.90;;;;;;4961570;28;20409;-70
2022/08/28 11:38:41;;;;;;;9.87;7.60;;;27.40;99.90;;;;;;4958312;28;20783;-68
2022/08/28 11:41:23;;;;;;;11.87;9.03;;;26.80;99.90;;;;;;4957799;28;20884;-69
2022/08/28 11:44:11;;;;;;;7.90;7.30;;;26.40;99.90;;;;;;4958099;28;20467;-70
2022/08/28 11:46:41;;;;;;;8.70;7.80;;;25.90;99.90;;;;;;4961584;28;20422;-69
2022/08/28 11:49:30;;;;;;;7.70;7.10;;;25.70;99.90;;;;;;4957527;28;20419;-70
2022/08/28 11:52:05;;;;;;;9.83;7.20;;;25.70;99.90;;;;;;4957330;28;20443;-69
2022/08/28 11:54:49;;;;;;;7.90;7.07;;;26.00;99.90;;;;;;4951979;28;20491;-70
2022/08/28 11:57:45;;;;;;;8.83;8.03;;;26.10;99.90;;;;;;4951800;28;20432;-70
2022/08/28 12:00:31;;;;;;;10.20;7.57;;;26.20;99.90;;;;;;4955648;28;20467;-72
2022/08/28 12:03:06;;;;;;;8.87;6.93;;;26.60;99.90;;;;;;4949531;29;20836;-70
2022/08/28 12:05:32;;;;;;;7.23;6.60;;;26.80;99.90;;;;;;4951731;29;20833;-69
2022/08/28 12:08:00;;;;;;;7.80;7.00;;;26.50;99.90;;;;;;4958373;28;20515;-71
2022/08/28 12:10:29;;;;;;;8.33;7.50;;;26.40;99.90;;;;;;4954098;28;20184;-70
2022/08/28 12:12:58;;;;;;;8.17;6.83;;;26.40;99.90;;;;;;4954318;28;20455;-70
2022/08/28 12:15:26;;;;;;;7.70;6.87;;;26.00;99.90;;;;;;4956242;28;20421;-69
2022/08/28 12:17:58;;;;;;;10.50;7.60;;;25.80;99.90;;;;;;4952274;28;20416;-69
2022/08/28 12:20:45;;;;;;;8.47;6.83;;;25.70;99.90;;;;;;4951728;29;20794;-69
2022/08/28 12:23:32;;;;;;;7.87;7.17;;;25.90;99.90;;;;;;4951630;29;20472;-69
2022/08/28 12:26:02;;;;;;;9.20;7.27;;;26.40;99.90;;;;;;4949704;29;20412;-69
2022/08/28 12:28:49;;;;;;;9.07;6.90;;;26.50;99.90;;;;;;4949015;29;20408;-69
2022/08/28 12:34:53;;;;;;;11.50;7.57;;;26.60;99.90;;;;;;4934092;29;20440;-70
2022/08/28 12:37:33;;;;;;;7.80;7.10;;;26.40;99.90;;;;;;4939754;29;20425;-69
2022/08/28 12:40:16;;;;;;;8.10;6.87;;;26.60;99.90;;;;;;4952973;28;20921;-71
2022/08/28 12:42:50;;;;;;;7.17;6.57;;;26.40;99.90;;;;;;4952979;28;20828;-70
2022/08/28 12:45:25;;;;;;;7.00;5.93;;;26.60;99.90;;;;;;4953273;28;20451;-70
2022/08/28 12:47:54;;;;;;;8.00;6.90;;;26.60;99.90;;;;;;4951760;28;20419;-69
2022/08/28 12:50:26;;;;;;;7.53;6.63;;;26.80;99.90;;;;;;4953992;28;20785;-69
2022/08/28 12:52:55;;;;;;;7.30;6.63;;;26.80;99.90;;;;;;4956699;28;20945;-69
2022/08/28 12:55:22;;;;;;;10.53;6.80;;;27.00;99.90;;;;;;4955929;28;20420;-70
2022/08/28 12:57:48;;;;;;;6.83;5.67;;;27.00;99.90;;;;;;4956418;28;20432;-69
2022/08/28 13:00:30;;;;;;;7.60;6.80;;;27.00;99.90;;;;;;4956143;28;20944;-69
2022/08/28 13:02:56;;;;;;;7.83;6.40;;;27.20;99.90;;;;;;4956515;28;20472;-69
2022/08/28 13:05:34;;;;;;;6.47;5.83;;;27.00;99.90;;;;;;4955774;28;20524;-70
2022/08/28 13:08:07;;;;;;;7.07;6.37;;;26.90;99.90;;;;;;4956349;28;20187;-69
2022/08/28 13:10:39;;;;;;;7.83;6.53;;;26.80;99.90;;;;;;4949342;29;20408;-69
2022/08/28 13:13:18;;;;;;;6.97;6.33;;;26.70;99.90;;;;;;4955803;28;20439;-69
2022/08/28 13:16:05;;;;;;;8.07;6.67;;;26.50;99.90;;;;;;4956234;29;20431;-71
2022/08/28 13:18:42;;;;;;;8.07;6.70;;;26.20;99.90;;;;;;4953826;29;20418;-70
2022/08/28 13:21:22;;;;;;;7.07;6.47;;;26.00;99.90;;;;;;4955715;29;20846;-72
2022/08/28 13:23:51;;;;;;;9.00;7.00;;;26.20;99.90;;;;;;4950362;29;20467;-72
2022/08/28 13:26:26;;;;;;;6.30;5.80;;;26.30;99.90;;;;;;4955905;28;20987;-72
2022/08/28 13:28:51;;;;;;;5.80;5.40;;;26.40;99.90;;;;;;4951807;29;20784;-72
2022/08/28 13:31:33;;;;;;;9.27;6.60;;;26.50;99.90;;;;;;4955495;28;20452;-72
2022/08/28 13:34:25;;;;;;;6.73;6.07;;;26.50;99.90;;;;;;4952369;29;20242;-71
2022/08/28 13:36:56;;;;;;;6.50;5.90;;;26.30;99.90;;;;;;4945141;29;20809;-71
2022/08/28 13:39:23;;;;;;;8.17;5.70;;;26.20;99.90;;;;;;4955578;28;20432;-72
2022/08/28 13:41:52;;;;;;;8.10;7.30;;;26.00;99.90;;;;;;4955702;28;20448;-72
2022/08/28 13:44:34;;;;;;;7.03;6.13;;;25.90;99.90;;;;;;4955127;29;20428;-69
2022/08/28 13:47:05;;;;;;;6.83;5.83;;;25.80;99.90;;;;;;4955657;28;20420;-72
2022/08/28 13:49:31;;;;;;;7.27;6.27;;;25.70;99.90;;;;;;4955351;28;20417;-72
2022/08/28 13:51:58;;;;;;;6.80;6.20;;;25.70;99.90;;;;;;4955076;28;20539;-71
2022/08/28 13:54:24;;;;;;;6.80;5.60;;;25.80;99.90;;;;;;4947986;29;20420;-71
2022/08/28 13:56:50;;;;;;;6.53;5.90;;;25.60;99.90;;;;;;4955492;29;20428;-72
2022/08/28 13:59:17;;;;;;;6.30;5.57;;;25.50;99.90;;;;;;4955663;29;20215;-71
2022/08/28 14:04:27;;;;;;;6.43;5.83;;;25.30;99.90;;;;;;4949121;29;20504;-72
2022/08/28 14:06:52;;;;;;;5.87;5.47;;;25.40;99.90;;;;;;4955359;28;20507;-72
2022/08/28 14:09:18;;;;;;;6.33;5.73;;;25.40;99.90;;;;;;4939803;29;20274;-72
2022/08/28 14:11:45;;;;;;;8.43;6.60;;;25.40;99.90;;;;;;4955192;29;20205;-72
2022/08/28 14:14:11;;;;;;;6.33;5.77;;;25.50;99.90;;;;;;4955051;29;20189;-72
2022/08/28 14:16:37;;;;;;;5.63;5.00;;;25.40;99.90;;;;;;4955043;29;20994;-71
2022/08/28 14:19:04;;;;;;;6.30;5.80;;;25.40;99.90;;;;;;4955222;29;20188;-72
2022/08/28 14:21:38;;;;;;;9.13;5.60;;;25.50;99.90;;;;;;4954734;28;20451;-73
2022/08/28 14:24:04;;;;;;;9.03;6.17;;;25.60;99.90;;;;;;4954828;29;20468;-72
2022/08/28 14:26:30;;;;;;;9.17;7.20;;;25.70;99.90;;;;;;4954772;29;20902;-71
2022/08/28 14:29:04;;;;;;;6.30;5.70;;;25.80;99.90;;;;;;4955090;28;20215;-72
2022/08/28 14:31:30;;;;;;;10.37;5.90;;;25.80;99.90;;;;;;4951216;29;20471;-72
2022/08/28 14:33:57;;;;;;;6.50;5.90;;;25.80;99.90;;;;;;4954738;29;20420;-71
2022/08/28 14:36:26;;;;;;;7.20;5.40;;;25.80;99.90;;;;;;4954554;28;20280;-72
2022/08/28 14:38:53;;;;;;;6.13;5.63;;;25.80;99.90;;;;;;4954732;29;20443;-72